Time;durP1;ratioP1;P1;durP2;ratioP2;P2;SDS_P1;SDS_P2;PMS_P1;PMS_P2;Temp;Humidity;BMP_temperature;BMP_pressure;BME280_temperature;BME280_humidity;BME280_pressure;Samples;Min_cycle;Max_cycle;Signal;HPM_P1;HPM_P2
2022/03/13 00:00:28;;;;;;;14.77;9.33;;;8.90;91.30;;;;;;7387591;19;20150;-74
2022/03/13 00:02:55;;;;;;;13.87;9.47;;;8.70;91.30;;;;;;7389402;19;20879;-72
2022/03/13 00:05:22;;;;;;;15.07;9.23;;;8.70;91.60;;;;;;7388462;19;20217;-72
2022/03/13 00:07:48;;;;;;;15.73;9.00;;;8.70;91.60;;;;;;7386349;19;20146;-73
2022/03/13 00:10:27;;;;;;;14.70;9.13;;;8.80;91.60;;;;;;7393220;19;20206;-73
2022/03/13 00:12:54;;;;;;;19.57;9.40;;;8.70;91.60;;;;;;7389174;19;20122;-73
2022/03/13 00:15:38;;;;;;;15.60;9.50;;;8.70;91.70;;;;;;7388462;19;20134;-74
2022/03/13 00:18:04;;;;;;;14.97;9.07;;;8.70;91.80;;;;;;7386392;19;20914;-74
2022/03/13 00:20:34;;;;;;;15.87;9.20;;;8.60;91.80;;;;;;7388924;19;20131;-73
2022/03/13 00:23:00;;;;;;;15.20;8.87;;;8.60;91.90;;;;;;7387555;19;20226;-73
2022/03/13 00:25:26;;;;;;;20.50;10.23;;;8.60;91.80;;;;;;7386360;19;20158;-75
2022/03/13 00:27:52;;;;;;;16.40;9.60;;;8.70;91.80;;;;;;7385040;19;20143;-75
2022/03/13 00:30:18;;;;;;;14.93;9.53;;;8.70;91.70;;;;;;7384651;19;20154;-74
2022/03/13 00:32:44;;;;;;;14.97;9.17;;;8.50;91.80;;;;;;7387009;19;20777;-74
2022/03/13 00:35:11;;;;;;;14.17;8.43;;;8.40;91.90;;;;;;7386968;19;20145;-74
2022/03/13 00:37:37;;;;;;;15.50;8.83;;;8.50;91.80;;;;;;7384518;19;20256;-75
2022/03/13 00:40:04;;;;;;;14.47;9.10;;;8.60;91.70;;;;;;7388164;19;20536;-73
2022/03/13 00:42:29;;;;;;;17.83;9.07;;;8.60;91.60;;;;;;7388015;19;20131;-74
2022/03/13 00:44:55;;;;;;;13.60;8.17;;;8.60;91.50;;;;;;7388992;19;20142;-74
2022/03/13 00:47:24;;;;;;;12.90;8.17;;;8.60;91.40;;;;;;7385205;19;20138;-75
2022/03/13 00:49:50;;;;;;;16.67;9.37;;;8.60;91.60;;;;;;7388056;19;20122;-74
2022/03/13 00:52:17;;;;;;;13.43;8.27;;;8.10;91.70;;;;;;7386030;19;20141;-72
2022/03/13 00:54:43;;;;;;;15.00;8.77;;;7.90;92.20;;;;;;7385890;19;20538;-74
2022/03/13 00:57:09;;;;;;;17.13;9.47;;;8.00;91.90;;;;;;7388911;19;20161;-74
2022/03/13 00:59:35;;;;;;;16.47;9.20;;;8.20;92.10;;;;;;7387910;19;20489;-73
2022/03/13 01:02:03;;;;;;;13.50;8.30;;;8.10;91.90;;;;;;7387976;19;20154;-74
2022/03/13 01:04:29;;;;;;;14.63;8.50;;;8.20;91.90;;;;;;7386398;19;20134;-75
2022/03/13 01:06:55;;;;;;;13.47;8.23;;;8.30;91.80;;;;;;7383653;19;20144;-73
2022/03/13 01:09:21;;;;;;;19.40;9.67;;;8.40;91.80;;;;;;7387806;19;20494;-72
2022/03/13 01:11:47;;;;;;;17.20;9.20;;;8.20;91.80;;;;;;7387789;19;20138;-73
2022/03/13 01:14:15;;;;;;;20.83;10.73;;;8.20;91.90;;;;;;7386843;19;20122;-72
2022/03/13 01:16:41;;;;;;;17.33;9.43;;;8.30;92.00;;;;;;7384493;19;20610;-74
2022/03/13 01:19:07;;;;;;;15.13;9.00;;;8.30;92.10;;;;;;7384725;19;20259;-74
2022/03/13 01:21:37;;;;;;;20.53;9.83;;;8.10;92.20;;;;;;7385219;19;20126;-72
2022/03/13 01:24:15;;;;;;;19.57;10.17;;;8.20;92.30;;;;;;7384906;19;20493;-72
2022/03/13 01:26:42;;;;;;;17.73;9.57;;;8.10;92.40;;;;;;7384297;19;20131;-73
2022/03/13 01:29:10;;;;;;;16.50;9.13;;;7.90;92.50;;;;;;7383164;19;20190;-73
2022/03/13 01:31:42;;;;;;;15.40;9.50;;;7.60;93.10;;;;;;7390092;19;20610;-74
2022/03/13 01:34:11;;;;;;;17.87;9.00;;;7.60;93.20;;;;;;7385560;19;20143;-75
2022/03/13 01:36:37;;;;;;;14.03;9.10;;;7.60;93.30;;;;;;7384365;19;20158;-73
2022/03/13 01:39:04;;;;;;;14.87;9.20;;;7.50;93.20;;;;;;7385911;19;20135;-74
2022/03/13 01:41:33;;;;;;;17.57;9.80;;;7.60;93.40;;;;;;7384290;19;20151;-72
2022/03/13 01:44:00;;;;;;;15.00;8.87;;;7.40;93.50;;;;;;7387804;19;20159;-73
2022/03/13 01:46:27;;;;;;;20.97;9.17;;;7.20;93.70;;;;;;7387872;19;20146;-72
2022/03/13 01:49:04;;;;;;;14.90;9.47;;;7.20;93.90;;;;;;7385673;19;20130;-73
2022/03/13 01:51:31;;;;;;;13.00;8.43;;;7.20;93.90;;;;;;7386853;19;20221;-74
2022/03/13 01:54:07;;;;;;;13.00;8.63;;;7.10;94.10;;;;;;7386695;19;20448;-73
2022/03/13 01:56:34;;;;;;;17.07;9.00;;;7.00;94.30;;;;;;7384829;19;20456;-73
2022/03/13 01:59:02;;;;;;;17.87;10.17;;;7.30;94.00;;;;;;7386537;19;20142;-73
2022/03/13 02:01:28;;;;;;;18.10;9.63;;;7.50;93.80;;;;;;7384208;19;20143;-73
2022/03/13 02:03:55;;;;;;;16.00;10.13;;;7.70;93.70;;;;;;7384350;19;20130;-74
2022/03/13 02:06:26;;;;;;;15.57;9.60;;;7.80;93.70;;;;;;7381002;19;20127;-73
2022/03/13 02:08:53;;;;;;;17.77;10.37;;;7.70;93.90;;;;;;7384803;19;20127;-73
2022/03/13 02:11:24;;;;;;;16.80;9.97;;;7.60;94.10;;;;;;7384190;19;20150;-72
2022/03/13 02:13:53;;;;;;;18.87;10.03;;;7.60;94.20;;;;;;7383977;19;20225;-75
2022/03/13 02:16:20;;;;;;;17.40;9.93;;;7.40;94.30;;;;;;7384701;19;20467;-74
2022/03/13 02:18:52;;;;;;;19.13;9.70;;;7.30;94.70;;;;;;7382153;19;20131;-74
2022/03/13 02:21:19;;;;;;;17.53;9.80;;;7.40;94.40;;;;;;7384199;19;20126;-75
2022/03/13 02:23:45;;;;;;;16.27;9.90;;;7.40;94.50;;;;;;7384128;19;20130;-74
2022/03/13 02:26:11;;;;;;;15.90;9.47;;;7.30;94.40;;;;;;7380327;19;20459;-73
2022/03/13 02:28:48;;;;;;;18.37;10.17;;;7.10;94.60;;;;;;7381480;19;20297;-73
2022/03/13 02:31:19;;;;;;;19.27;10.17;;;7.00;94.90;;;;;;7381728;19;20145;-72
2022/03/13 02:33:45;;;;;;;15.30;9.77;;;6.70;95.00;;;;;;7386265;19;20147;-74
2022/03/13 02:36:33;;;;;;;17.53;9.50;;;6.90;95.20;;;;;;7387073;19;20162;-73
2022/03/13 02:39:07;;;;;;;17.10;9.90;;;7.20;94.40;;;;;;7382409;19;20147;-74
2022/03/13 02:41:33;;;;;;;15.43;9.13;;;7.50;94.00;;;;;;7381518;19;20133;-74
2022/03/13 02:43:59;;;;;;;18.57;9.60;;;7.20;94.20;;;;;;7381140;19;20469;-74
2022/03/13 02:46:48;;;;;;;15.97;9.30;;;7.10;94.40;;;;;;7382929;19;20135;-74
2022/03/13 02:49:15;;;;;;;14.33;8.63;;;7.40;94.20;;;;;;7381566;19;20594;-74
2022/03/13 02:51:43;;;;;;;15.17;9.37;;;7.50;93.90;;;;;;7385278;19;20131;-74
2022/03/13 02:54:10;;;;;;;19.33;10.63;;;7.40;94.60;;;;;;7382719;19;20608;-73
2022/03/13 02:56:36;;;;;;;16.63;9.80;;;7.30;94.50;;;;;;7382347;19;20662;-74
2022/03/13 02:59:01;;;;;;;15.97;9.73;;;7.50;94.60;;;;;;7384677;19;20853;-73
2022/03/13 03:01:27;;;;;;;15.77;9.17;;;7.40;94.60;;;;;;7380975;19;20206;-75
2022/03/13 03:03:59;;;;;;;13.13;8.93;;;7.20;94.50;;;;;;7383243;19;20202;-74
2022/03/13 03:06:27;;;;;;;13.80;9.03;;;7.00;94.80;;;;;;7384383;19;20168;-73
2022/03/13 03:08:53;;;;;;;14.30;8.90;;;6.90;94.80;;;;;;7381344;19;20151;-74
2022/03/13 03:11:19;;;;;;;15.43;8.67;;;6.60;95.10;;;;;;7383714;19;20162;-73
2022/03/13 03:13:44;;;;;;;13.97;9.30;;;6.40;95.80;;;;;;7381965;19;20140;-73
2022/03/13 03:16:10;;;;;;;14.53;8.97;;;6.40;96.00;;;;;;7383017;19;20194;-73
2022/03/13 03:18:36;;;;;;;15.23;9.40;;;6.20;96.20;;;;;;7386200;19;20174;-73
2022/03/13 03:21:02;;;;;;;18.70;9.90;;;6.20;96.20;;;;;;7381498;19;20150;-74
2022/03/13 03:23:28;;;;;;;12.80;8.40;;;6.20;96.30;;;;;;7380424;19;20165;-74
2022/03/13 03:25:53;;;;;;;16.23;9.53;;;6.30;96.40;;;;;;7380188;19;20669;-74
2022/03/13 03:28:21;;;;;;;16.93;10.10;;;6.30;96.10;;;;;;7379899;19;20139;-73
2022/03/13 03:30:47;;;;;;;14.20;9.30;;;6.50;96.10;;;;;;7377896;19;20167;-74
2022/03/13 03:33:13;;;;;;;15.33;8.63;;;6.80;95.80;;;;;;7382737;19;20138;-73
2022/03/13 03:35:38;;;;;;;15.43;9.70;;;6.90;95.50;;;;;;7380269;19;20194;-74
2022/03/13 03:38:04;;;;;;;17.93;8.77;;;7.00;95.40;;;;;;7380410;19;20126;-73
2022/03/13 03:40:32;;;;;;;16.30;8.77;;;7.10;95.30;;;;;;7382224;19;20602;-73
2022/03/13 03:42:59;;;;;;;14.17;9.03;;;7.00;95.30;;;;;;7384563;19;20126;-74
2022/03/13 03:45:25;;;;;;;19.70;9.73;;;6.90;95.60;;;;;;7381330;19;20126;-73
2022/03/13 03:47:51;;;;;;;15.33;9.23;;;7.00;95.30;;;;;;7379733;19;20168;-75
2022/03/13 03:50:18;;;;;;;12.63;8.27;;;6.70;95.80;;;;;;7381015;19;20130;-72
2022/03/13 03:52:46;;;;;;;13.33;8.77;;;6.60;95.40;;;;;;7380487;19;20152;-73
2022/03/13 03:55:14;;;;;;;17.03;9.87;;;6.80;95.50;;;;;;7386225;19;20610;-73
2022/03/13 03:57:40;;;;;;;19.90;9.07;;;7.00;94.60;;;;;;7386579;19;20422;-72
2022/03/13 04:00:08;;;;;;;14.17;9.57;;;7.00;94.20;;;;;;7387583;19;20172;-73
2022/03/13 04:02:34;;;;;;;15.10;8.83;;;7.00;94.50;;;;;;7391263;19;20130;-74
2022/03/13 04:05:01;;;;;;;13.83;8.93;;;6.80;95.20;;;;;;7390599;19;20475;-74
2022/03/13 04:07:27;;;;;;;16.43;8.67;;;6.90;95.50;;;;;;7387274;19;20152;-74
2022/03/13 04:09:53;;;;;;;17.90;8.80;;;6.80;95.10;;;;;;7387213;19;20119;-74
2022/03/13 04:12:19;;;;;;;16.37;8.93;;;6.90;95.00;;;;;;7385668;19;20135;-73
2022/03/13 04:14:45;;;;;;;14.57;8.93;;;7.00;94.90;;;;;;7386118;19;20139;-74
2022/03/13 04:17:11;;;;;;;15.53;8.70;;;6.90;94.50;;;;;;7386992;19;20158;-74
2022/03/13 04:19:37;;;;;;;15.47;9.00;;;6.90;94.20;;;;;;7390462;19;20192;-74
2022/03/13 04:22:03;;;;;;;14.13;8.10;;;6.60;94.40;;;;;;7388408;19;20127;-73
2022/03/13 04:24:32;;;;;;;17.43;9.17;;;6.80;94.70;;;;;;7389135;19;20146;-73
2022/03/13 04:26:58;;;;;;;14.10;7.73;;;6.80;94.60;;;;;;7386047;19;20138;-74
2022/03/13 04:29:24;;;;;;;14.87;8.53;;;6.50;95.00;;;;;;7387736;19;20226;-74
2022/03/13 04:31:53;;;;;;;15.53;9.20;;;6.60;95.00;;;;;;7388666;19;20150;-75
2022/03/13 04:34:19;;;;;;;15.73;8.70;;;6.20;95.10;;;;;;7388251;19;20139;-73
2022/03/13 04:36:45;;;;;;;15.60;8.57;;;6.40;95.10;;;;;;7388807;19;20143;-72
2022/03/13 04:39:12;;;;;;;15.03;8.87;;;6.60;95.00;;;;;;7385536;19;20155;-74
2022/03/13 04:41:38;;;;;;;14.67;9.17;;;6.40;94.80;;;;;;7388671;19;20155;-73
2022/03/13 04:44:10;;;;;;;17.53;9.07;;;6.50;94.70;;;;;;7387536;19;20127;-73
2022/03/13 04:46:36;;;;;;;17.73;8.77;;;6.80;94.40;;;;;;7387233;19;20198;-72
2022/03/13 04:49:02;;;;;;;15.80;8.37;;;6.80;94.30;;;;;;7387638;19;20148;-73
2022/03/13 04:51:27;;;;;;;14.67;8.40;;;6.80;94.20;;;;;;7388984;19;20135;-73
2022/03/13 04:53:53;;;;;;;17.53;8.93;;;6.70;94.10;;;;;;7385085;19;20134;-75
2022/03/13 04:56:19;;;;;;;15.37;7.87;;;6.80;94.10;;;;;;7384846;19;20151;-74
2022/03/13 04:58:45;;;;;;;13.07;8.17;;;6.80;94.00;;;;;;7385138;19;20154;-74
2022/03/13 05:01:11;;;;;;;14.53;8.23;;;6.80;94.00;;;;;;7384720;19;20160;-72
2022/03/13 05:03:37;;;;;;;12.20;7.97;;;6.70;94.20;;;;;;7384117;19;20123;-73
2022/03/13 05:06:05;;;;;;;15.80;9.03;;;6.70;94.10;;;;;;7383762;19;20641;-73
2022/03/13 05:08:34;;;;;;;15.17;9.07;;;6.70;93.80;;;;;;7385048;19;20143;-73
2022/03/13 05:11:00;;;;;;;15.87;8.87;;;6.60;94.00;;;;;;7387705;19;20131;-73
2022/03/13 05:13:27;;;;;;;12.63;7.97;;;6.60;94.00;;;;;;7383724;19;20568;-73
2022/03/13 05:15:52;;;;;;;15.63;8.10;;;6.60;94.20;;;;;;7383742;19;20146;-72
2022/03/13 05:18:19;;;;;;;12.80;7.83;;;6.60;94.30;;;;;;7384452;19;20554;-73
2022/03/13 05:20:45;;;;;;;14.87;8.00;;;6.60;94.20;;;;;;7385480;19;20115;-73
2022/03/13 05:23:12;;;;;;;11.73;7.23;;;6.50;94.10;;;;;;7384858;19;20123;-73
2022/03/13 05:25:39;;;;;;;13.33;8.43;;;6.20;94.30;;;;;;7384231;19;20485;-73
2022/03/13 05:28:06;;;;;;;12.33;7.47;;;6.10;94.50;;;;;;7381997;19;20259;-74
2022/03/13 05:30:32;;;;;;;13.70;8.00;;;6.20;94.80;;;;;;7383670;19;20157;-73
2022/03/13 05:32:58;;;;;;;15.63;8.83;;;6.30;94.60;;;;;;7386876;19;20119;-73
2022/03/13 05:35:25;;;;;;;14.07;8.73;;;6.10;94.60;;;;;;7384166;19;20150;-74
2022/03/13 05:37:51;;;;;;;13.67;8.57;;;6.10;95.00;;;;;;7387883;19;20138;-73
2022/03/13 05:40:19;;;;;;;12.17;8.37;;;6.40;94.70;;;;;;7382804;19;20127;-73
2022/03/13 05:42:55;;;;;;;15.57;8.50;;;6.50;94.40;;;;;;7385314;19;20609;-74
2022/03/13 05:45:22;;;;;;;12.40;7.63;;;6.50;94.30;;;;;;7384754;19;20153;-73
2022/03/13 05:47:53;;;;;;;14.13;8.07;;;6.50;94.40;;;;;;7382443;19;20609;-72
2022/03/13 05:50:20;;;;;;;13.17;8.63;;;6.40;94.50;;;;;;7385359;19;20147;-74
2022/03/13 05:52:46;;;;;;;16.67;8.90;;;6.50;94.70;;;;;;7384531;19;20156;-73
2022/03/13 05:55:14;;;;;;;16.40;9.37;;;6.70;94.70;;;;;;7385363;19;20139;-74
2022/03/13 05:57:40;;;;;;;14.87;8.53;;;6.60;94.50;;;;;;7382075;19;20581;-74
2022/03/13 06:00:08;;;;;;;14.67;9.10;;;6.20;95.00;;;;;;7386317;19;20142;-74
2022/03/13 06:02:39;;;;;;;15.40;9.23;;;6.40;94.90;;;;;;7383545;19;20135;-73
2022/03/13 06:05:10;;;;;;;17.17;9.37;;;6.60;95.10;;;;;;7387167;19;20242;-73
2022/03/13 06:07:37;;;;;;;16.10;8.80;;;6.60;94.50;;;;;;7382322;19;20178;-74
2022/03/13 06:10:05;;;;;;;16.90;9.67;;;6.60;94.70;;;;;;7385089;19;20206;-74
2022/03/13 06:12:31;;;;;;;17.40;9.70;;;6.60;94.60;;;;;;7387035;19;20131;-74
2022/03/13 06:14:58;;;;;;;17.23;9.03;;;6.60;94.50;;;;;;7386602;19;20147;-74
2022/03/13 06:17:25;;;;;;;17.80;9.53;;;6.60;94.50;;;;;;7382926;19;20210;-74
2022/03/13 06:19:51;;;;;;;17.37;9.53;;;6.60;94.40;;;;;;7388344;19;20134;-74
2022/03/13 06:22:19;;;;;;;17.07;9.53;;;6.50;94.50;;;;;;7386053;19;20538;-73
2022/03/13 06:24:45;;;;;;;21.13;10.23;;;6.50;94.40;;;;;;7382232;19;20244;-73
2022/03/13 06:27:11;;;;;;;23.80;10.23;;;6.50;94.50;;;;;;7381314;19;20135;-73
2022/03/13 06:29:39;;;;;;;19.33;10.10;;;6.50;94.50;;;;;;7381186;19;20158;-74
2022/03/13 06:32:05;;;;;;;16.53;9.37;;;6.40;94.40;;;;;;7383998;19;20224;-74
2022/03/13 06:34:32;;;;;;;17.40;10.00;;;6.30;94.60;;;;;;7385124;19;20134;-74
2022/03/13 06:36:58;;;;;;;17.57;10.30;;;6.30;94.80;;;;;;7385397;19;20145;-74
2022/03/13 06:39:24;;;;;;;17.93;10.53;;;6.30;94.90;;;;;;7382040;19;20142;-74
2022/03/13 06:41:51;;;;;;;17.13;9.80;;;6.50;94.90;;;;;;7382100;19;20981;-75
2022/03/13 06:44:20;;;;;;;18.83;10.43;;;6.40;94.80;;;;;;7381598;19;20158;-74
2022/03/13 06:46:46;;;;;;;17.87;10.07;;;6.40;94.90;;;;;;7384920;19;20147;-72
2022/03/13 06:49:12;;;;;;;16.90;9.50;;;6.40;95.00;;;;;;7382070;19;20126;-75
2022/03/13 06:51:38;;;;;;;17.20;9.77;;;6.50;95.00;;;;;;7385962;19;20177;-75
2022/03/13 06:54:06;;;;;;;14.83;9.93;;;6.50;95.20;;;;;;7380564;19;20481;-74
2022/03/13 06:56:33;;;;;;;16.93;9.83;;;6.60;94.70;;;;;;7381728;19;20122;-75
2022/03/13 06:59:03;;;;;;;17.43;8.73;;;6.50;94.90;;;;;;7384574;19;20142;-74
2022/03/13 07:01:37;;;;;;;16.97;10.33;;;6.60;95.10;;;;;;7385564;19;20119;-74
2022/03/13 07:04:04;;;;;;;16.17;10.07;;;6.50;95.00;;;;;;7382444;19;20485;-73
2022/03/13 07:06:33;;;;;;;18.43;10.70;;;6.60;95.20;;;;;;7379310;19;20134;-73
2022/03/13 07:08:59;;;;;;;17.37;10.20;;;6.60;95.00;;;;;;7380498;19;20142;-74
2022/03/13 07:11:30;;;;;;;18.27;10.60;;;6.70;95.10;;;;;;7381891;19;20130;-74
2022/03/13 07:13:56;;;;;;;19.93;10.17;;;6.80;95.00;;;;;;7382584;19;20163;-75
2022/03/13 07:16:23;;;;;;;16.27;9.63;;;6.70;95.00;;;;;;7380183;19;20127;-74
2022/03/13 07:18:49;;;;;;;20.73;10.80;;;6.80;95.10;;;;;;7384267;19;20497;-73
2022/03/13 07:21:15;;;;;;;16.03;10.13;;;6.80;95.20;;;;;;7382155;19;20139;-73
2022/03/13 07:23:40;;;;;;;15.53;9.20;;;6.90;94.90;;;;;;7382092;19;20115;-73
2022/03/13 07:26:07;;;;;;;18.27;9.87;;;6.90;95.30;;;;;;7378269;19;20478;-74
2022/03/13 07:28:32;;;;;;;18.43;10.27;;;6.90;95.40;;;;;;7380642;19;20479;-74
2022/03/13 07:30:58;;;;;;;19.10;10.47;;;6.80;95.60;;;;;;7389747;19;20134;-74
2022/03/13 07:33:24;;;;;;;15.80;9.30;;;6.60;95.80;;;;;;7389177;19;20140;-75
2022/03/13 07:35:50;;;;;;;17.77;10.40;;;6.80;95.60;;;;;;7388589;19;20137;-74
2022/03/13 07:38:16;;;;;;;15.73;9.70;;;7.00;95.50;;;;;;7387368;19;20131;-74
2022/03/13 07:40:43;;;;;;;20.00;10.37;;;7.20;95.40;;;;;;7391485;19;20433;-74
2022/03/13 07:43:10;;;;;;;17.40;10.70;;;7.40;95.10;;;;;;7390912;19;20250;-74
2022/03/13 07:45:35;;;;;;;17.93;10.20;;;7.50;95.00;;;;;;7389704;19;20202;-75
2022/03/13 07:48:01;;;;;;;17.77;9.63;;;7.10;95.00;;;;;;7388077;19;20603;-75
2022/03/13 07:50:28;;;;;;;18.03;10.83;;;7.00;95.30;;;;;;7377309;19;20163;-73
2022/03/13 07:52:54;;;;;;;11.87;8.23;;;7.20;95.70;;;;;;7389793;19;20172;-73
2022/03/13 07:55:24;;;;;;;12.53;7.30;;;7.50;93.30;;;;;;7393210;19;20122;-75
2022/03/13 07:57:50;;;;;;;13.17;6.70;;;7.70;92.00;;;;;;7389520;19;20565;-74
2022/03/13 08:00:17;;;;;;;12.97;7.70;;;7.70;91.50;;;;;;7388299;19;20150;-73
2022/03/13 08:02:54;;;;;;;10.93;7.13;;;7.80;91.00;;;;;;7385964;19;20570;-74
2022/03/13 08:05:24;;;;;;;11.00;6.90;;;7.90;90.90;;;;;;7390337;19;20179;-73
2022/03/13 08:07:52;;;;;;;9.17;6.40;;;8.00;90.40;;;;;;7384960;19;20138;-75
2022/03/13 08:10:23;;;;;;;10.93;7.07;;;8.00;90.40;;;;;;7389943;19;20147;-74
2022/03/13 08:12:49;;;;;;;12.07;6.53;;;8.10;90.10;;;;;;7388940;19;20215;-74
2022/03/13 08:15:16;;;;;;;12.13;7.20;;;8.20;90.00;;;;;;7388135;19;20158;-74
2022/03/13 08:17:42;;;;;;;11.87;7.80;;;8.30;90.10;;;;;;7389070;19;20547;-75
2022/03/13 08:20:09;;;;;;;10.93;6.73;;;8.30;90.00;;;;;;7389799;19;20146;-73
2022/03/13 08:22:35;;;;;;;11.60;7.07;;;8.30;90.00;;;;;;7389535;19;20159;-73
2022/03/13 08:25:01;;;;;;;11.27;7.37;;;8.40;89.70;;;;;;7388940;19;20460;-72
2022/03/13 08:27:27;;;;;;;16.17;7.27;;;8.40;89.90;;;;;;7385547;19;20163;-72
2022/03/13 08:29:53;;;;;;;11.30;7.30;;;8.60;90.20;;;;;;7389586;19;20665;-74
2022/03/13 08:32:18;;;;;;;12.27;7.60;;;8.50;90.00;;;;;;7388187;19;20131;-74
2022/03/13 08:34:45;;;;;;;10.37;7.13;;;8.60;89.80;;;;;;7389259;19;20153;-74
2022/03/13 08:37:15;;;;;;;15.23;8.33;;;8.70;89.40;;;;;;7389899;19;20138;-74
2022/03/13 08:39:42;;;;;;;11.97;7.37;;;8.60;89.60;;;;;;7389835;19;20146;-72
2022/03/13 08:42:08;;;;;;;12.70;7.63;;;8.70;89.50;;;;;;7386437;19;20138;-73
2022/03/13 08:44:33;;;;;;;13.37;7.17;;;8.70;89.00;;;;;;7388977;19;20226;-74
2022/03/13 08:46:59;;;;;;;12.30;8.13;;;8.80;88.80;;;;;;7387872;19;20138;-74
2022/03/13 08:49:28;;;;;;;12.47;7.43;;;8.80;89.00;;;;;;7386995;19;20493;-74
2022/03/13 08:51:54;;;;;;;13.60;7.00;;;8.90;88.50;;;;;;7388858;19;20176;-74
2022/03/13 08:54:20;;;;;;;11.80;7.43;;;9.00;88.30;;;;;;7391637;19;20163;-73
2022/03/13 08:56:48;;;;;;;12.70;7.30;;;9.20;87.80;;;;;;7380555;19;20135;-74
2022/03/13 08:59:15;;;;;;;11.53;7.47;;;9.10;87.80;;;;;;7380193;19;20151;-72
2022/03/13 09:01:42;;;;;;;11.70;7.33;;;9.20;87.80;;;;;;7379023;19;20159;-74
2022/03/13 09:04:07;;;;;;;10.70;7.03;;;9.30;87.80;;;;;;7382120;19;20135;-72
2022/03/13 09:06:33;;;;;;;11.07;7.63;;;9.40;87.40;;;;;;7371727;19;20471;-73
2022/03/13 09:08:59;;;;;;;11.93;8.10;;;9.50;87.70;;;;;;7371921;19;20166;-75
2022/03/13 09:11:25;;;;;;;17.47;8.40;;;9.70;87.50;;;;;;7369906;19;20195;-72
2022/03/13 09:13:51;;;;;;;15.23;7.80;;;9.90;87.10;;;;;;7376286;19;20139;-75
2022/03/13 09:16:16;;;;;;;14.90;8.40;;;10.10;86.70;;;;;;7378611;19;20145;-76
2022/03/13 09:18:42;;;;;;;14.97;8.33;;;10.20;86.60;;;;;;7375029;19;20565;-74
2022/03/13 09:21:08;;;;;;;12.80;7.70;;;10.30;86.60;;;;;;7378146;19;20150;-75
2022/03/13 09:23:36;;;;;;;12.77;7.50;;;10.40;86.60;;;;;;7385431;19;20130;-74
2022/03/13 09:26:01;;;;;;;13.97;8.20;;;10.50;86.40;;;;;;7389016;19;20127;-75
2022/03/13 09:28:29;;;;;;;12.90;8.77;;;10.50;86.10;;;;;;7380515;19;20210;-72
2022/03/13 09:30:55;;;;;;;12.50;8.13;;;10.60;86.00;;;;;;7388924;19;20242;-73
2022/03/13 09:33:21;;;;;;;13.50;8.07;;;10.70;86.10;;;;;;7389651;19;20139;-75
2022/03/13 09:35:48;;;;;;;12.43;8.40;;;10.80;85.70;;;;;;7385751;19;20139;-74
2022/03/13 09:38:15;;;;;;;14.77;8.30;;;10.90;85.80;;;;;;7386898;19;20146;-73
2022/03/13 09:40:42;;;;;;;13.83;9.03;;;11.00;85.70;;;;;;7384062;19;20174;-71
2022/03/13 09:43:08;;;;;;;12.77;8.43;;;11.00;85.70;;;;;;7375203;19;20142;-75
2022/03/13 09:45:34;;;;;;;13.13;8.43;;;11.00;85.70;;;;;;7382024;19;20131;-75
2022/03/13 09:48:06;;;;;;;12.73;8.87;;;11.00;85.70;;;;;;7379656;19;20214;-75
2022/03/13 09:50:32;;;;;;;15.53;9.27;;;11.00;85.90;;;;;;7381914;19;20224;-74
2022/03/13 09:52:59;;;;;;;15.57;8.83;;;11.20;85.90;;;;;;7381233;19;20198;-73
2022/03/13 09:55:26;;;;;;;15.77;9.33;;;11.40;85.70;;;;;;7382030;19;20145;-74
2022/03/13 09:57:53;;;;;;;15.23;9.40;;;11.40;85.80;;;;;;7379850;19;20165;-74
2022/03/13 10:00:21;;;;;;;14.07;9.17;;;11.60;85.60;;;;;;7380333;19;20151;-77
2022/03/13 10:02:47;;;;;;;14.33;9.10;;;11.70;85.70;;;;;;7379448;19;20129;-75
2022/03/13 10:05:18;;;;;;;17.27;9.67;;;11.70;85.40;;;;;;7380915;19;20143;-75
2022/03/13 10:08:02;;;;;;;17.47;9.73;;;11.80;85.70;;;;;;7379774;19;20138;-74
2022/03/13 10:10:42;;;;;;;14.23;9.20;;;12.00;85.30;;;;;;7384724;19;20133;-75
2022/03/13 10:13:09;;;;;;;16.70;8.90;;;12.00;85.20;;;;;;7380014;19;20169;-74
2022/03/13 10:15:47;;;;;;;15.57;10.33;;;12.10;85.00;;;;;;7384420;19;20135;-75
2022/03/13 10:18:20;;;;;;;15.57;9.63;;;12.10;85.20;;;;;;7384029;19;20134;-74
2022/03/13 10:20:48;;;;;;;16.83;9.07;;;12.20;85.10;;;;;;7386379;19;20135;-74
2022/03/13 10:23:19;;;;;;;13.67;9.27;;;12.30;85.00;;;;;;7384789;19;20127;-74
2022/03/13 10:25:48;;;;;;;15.17;9.20;;;12.30;85.00;;;;;;7385180;19;20138;-73
2022/03/13 10:28:13;;;;;;;16.20;9.77;;;12.40;85.00;;;;;;7381280;19;20180;-77
2022/03/13 10:30:40;;;;;;;14.70;9.63;;;12.50;84.80;;;;;;7381529;19;20170;-76
2022/03/13 10:33:08;;;;;;;18.20;10.40;;;12.60;84.70;;;;;;7382404;19;20162;-74
2022/03/13 10:35:35;;;;;;;15.47;10.00;;;12.70;84.50;;;;;;7376367;19;20511;-73
2022/03/13 10:38:18;;;;;;;16.77;10.50;;;12.80;84.20;;;;;;7382180;19;20210;-76
2022/03/13 10:40:45;;;;;;;17.43;9.97;;;12.90;84.80;;;;;;7384866;19;20153;-74
2022/03/13 10:43:18;;;;;;;15.53;9.77;;;13.00;84.10;;;;;;7386977;19;20472;-74
2022/03/13 10:45:51;;;;;;;15.73;10.27;;;13.00;83.90;;;;;;7383487;19;20162;-73
2022/03/13 10:48:36;;;;;;;17.30;10.57;;;13.10;83.60;;;;;;7382827;19;20139;-74
2022/03/13 10:51:12;;;;;;;16.13;10.17;;;13.20;83.20;;;;;;7382480;19;20525;-76
2022/03/13 10:53:41;;;;;;;18.97;10.03;;;13.30;83.60;;;;;;7375168;19;20168;-76
2022/03/13 10:56:12;;;;;;;17.37;10.83;;;13.30;83.20;;;;;;7376577;19;20746;-75
2022/03/13 10:58:45;;;;;;;16.15;10.60;;;13.50;83.00;;;;;;7381516;19;20150;-74
2022/03/13 11:01:13;;;;;;;16.77;10.60;;;13.70;82.20;;;;;;7384262;19;20134;-75
2022/03/13 11:03:55;;;;;;;18.60;10.63;;;13.80;81.80;;;;;;7381927;19;20649;-75
2022/03/13 11:06:23;;;;;;;17.67;10.87;;;13.90;81.40;;;;;;7386083;19;20146;-73
2022/03/13 11:08:53;;;;;;;21.80;12.10;;;13.90;80.50;;;;;;7389597;19;20127;-76
2022/03/13 11:11:20;;;;;;;18.03;10.50;;;13.80;80.10;;;;;;7391669;19;20498;-73
2022/03/13 11:13:52;;;;;;;18.80;10.80;;;13.90;80.50;;;;;;7392487;19;20153;-74
2022/03/13 11:16:27;;;;;;;16.30;10.20;;;14.00;80.30;;;;;;7387213;19;20153;-73
2022/03/13 11:19:05;;;;;;;16.00;10.80;;;14.10;80.30;;;;;;7392669;19;20653;-74
2022/03/13 11:21:32;;;;;;;17.90;11.77;;;14.10;80.30;;;;;;7390548;19;20160;-75
2022/03/13 11:24:01;;;;;;;15.83;10.30;;;14.20;79.30;;;;;;7391024;19;20158;-75
2022/03/13 11:26:29;;;;;;;24.10;12.38;;;14.20;79.70;;;;;;7388306;19;20597;-73
2022/03/13 11:28:56;;;;;;;18.20;11.25;;;14.30;79.80;;;;;;7387726;19;20257;-75
2022/03/13 11:31:36;;;;;;;18.27;11.85;;;14.30;80.00;;;;;;7390200;19;20139;-75
2022/03/13 11:34:18;;;;;;;18.10;11.82;;;14.40;80.10;;;;;;7390101;19;20569;-73
2022/03/13 11:36:49;;;;;;;19.42;11.48;;;14.30;79.90;;;;;;7388600;19;20146;-74
2022/03/13 11:39:30;;;;;;;21.53;12.57;;;14.40;80.70;;;;;;7384927;19;20690;-74
2022/03/13 11:41:56;;;;;;;19.85;11.48;;;14.50;80.80;;;;;;7388558;19;20174;-75
2022/03/13 11:44:22;;;;;;;20.00;12.32;;;14.60;80.40;;;;;;7393350;19;20142;-75
2022/03/13 11:46:53;;;;;;;20.63;11.70;;;14.60;80.70;;;;;;7390381;19;20163;-75
2022/03/13 11:49:34;;;;;;;20.10;11.10;;;14.60;80.70;;;;;;7389673;19;20168;-76
2022/03/13 11:52:25;;;;;;;16.90;11.15;;;14.70;79.60;;;;;;7387029;19;20170;-76
2022/03/13 11:54:55;;;;;;;17.48;10.60;;;14.80;79.20;;;;;;7393307;19;20139;-75
2022/03/13 11:57:25;;;;;;;17.63;10.95;;;14.90;78.80;;;;;;7388306;19;20984;-77
2022/03/13 12:00:17;;;;;;;19.05;12.02;;;15.00;78.20;;;;;;7392485;19;20608;-76
2022/03/13 12:02:43;;;;;;;18.00;11.38;;;15.00;78.10;;;;;;7389594;19;20510;-76
2022/03/13 12:05:31;;;;;;;18.90;11.32;;;15.10;78.20;;;;;;7391693;19;20134;-77
2022/03/13 12:08:05;;;;;;;15.63;10.20;;;15.20;78.30;;;;;;7385379;19;20143;-78
2022/03/13 12:10:41;;;;;;;16.92;11.20;;;15.40;77.50;;;;;;7388727;19;20864;-76
2022/03/13 12:13:12;;;;;;;21.15;10.95;;;15.40;77.10;;;;;;7391395;19;20162;-75
2022/03/13 12:15:41;;;;;;;19.58;10.57;;;15.40;76.90;;;;;;7390054;19;20166;-77
2022/03/13 12:18:23;;;;;;;18.35;11.50;;;15.50;76.80;;;;;;7391144;19;20123;-76
2022/03/13 12:20:50;;;;;;;18.25;10.48;;;15.50;76.40;;;;;;7392132;19;20127;-77
2022/03/13 12:23:27;;;;;;;19.58;10.93;;;15.60;76.30;;;;;;7390165;19;20137;-76
2022/03/13 12:26:16;;;;;;;17.23;10.82;;;15.70;76.30;;;;;;7389450;19;20150;-77
2022/03/13 12:28:41;;;;;;;18.13;12.05;;;15.70;76.00;;;;;;7387204;19;20567;-76
2022/03/13 12:31:07;;;;;;;18.77;11.48;;;15.90;75.50;;;;;;7387566;19;20150;-76
2022/03/13 12:33:47;;;;;;;17.98;10.80;;;16.00;75.40;;;;;;7384654;19;20598;-77
2022/03/13 12:36:35;;;;;;;19.83;11.48;;;15.90;75.10;;;;;;7389891;19;20197;-78
2022/03/13 12:39:14;;;;;;;19.48;12.27;;;16.00;74.60;;;;;;7392191;19;20138;-76
2022/03/13 12:41:46;;;;;;;17.90;11.73;;;16.20;74.20;;;;;;7388250;19;20553;-76
2022/03/13 12:44:13;;;;;;;21.55;12.20;;;16.10;74.80;;;;;;7387411;19;20226;-75
2022/03/13 12:46:40;;;;;;;17.30;11.15;;;16.20;74.60;;;;;;7385866;19;20137;-79